Gulf Bridge — A8JM5 — position and weather

sailwx.info

Track history (hours):
 
Tides and Currents Weather Stations Pressure Air Temp Water Temp Dewpoint Dewpoint Depression Visibility Wind Speed Wind Dir Waves Ship Positions

Gulf Bridge

Last reported at 2014-Aug-29 06:11 UTC. Time now 2014-Sep-02 02:11 UTC.
Position S 36°48' E 176°06'.

Length 213 m; beam 32.2 m; draft 11.5 m.

Type: Cargo ship. MMSI: 636091115.

Date/timePositionNaut miles runAvg speedWind from/ knotsBaromVisibWave heightAir tempDewpointWater temp
2014-Aug-29 06:11S 36°48' E 176°06'2012.0
2014-Aug-29 04:31S 36°31' E 175°53'2412.3
2014-Aug-29 02:33S 36°24' E 175°24'1010.4
2014-Aug-29 01:33S 36°28' E 175°12'1111.3
2014-Aug-29 00:32S 36°35' E 175°01'1111.2
2014-Aug-28 23:33S 36°43' E 174°52'8 8.1
2014-Aug-28 22:33S 36°50' E 174°47'0 0.3
2014-Aug-28 21:30S 36°51' E 174°47'0 0.0
2014-Aug-28 20:30S 36°51' E 174°47'0 0.0
2014-Aug-28 19:30S 36°51' E 174°47'0 0.0
2014-Aug-28 18:18S 36°51' E 174°47'0 0.0
2014-Aug-28 17:30S 36°51' E 174°47'0 0.0
2014-Aug-28 16:30S 36°51' E 174°47'0 0.0
2014-Aug-28 15:30S 36°51' E 174°47'0 0.0
2014-Aug-28 14:30S 36°51' E 174°47'0 0.0
2014-Aug-28 12:30S 36°51' E 174°47'0 0.0
2014-Aug-28 11:30S 36°51' E 174°47'0 0.0
2014-Aug-28 10:33S 36°51' E 174°47'6 6.3
2014-Aug-28 09:33S 36°45' E 174°50'10 9.9
2014-Aug-28 08:34S 36°37' E 174°57'1010.1
2014-Aug-28 07:34S 36°27' E 174°58'1111.1
2014-Aug-28 06:33S 36°16' E 174°58'  
2014-Aug-23 00:32S 39°21' E 148°09'1414.2
2014-Aug-22 23:34S 39°20' E 147°51'1413.6
2014-Aug-22 22:33S 39°20' E 147°33'1313.4
2014-Aug-22 21:33S 39°19' E 147°16'1313.3
2014-Aug-22 20:33S 39°18' E 146°58'1313.4
2014-Aug-22 19:33S 39°17' E 146°41'1413.7
2014-Aug-22 18:34S 39°17' E 146°24'1313.2
2014-Aug-22 17:33S 39°13' E 146°07'1414.1
2014-Aug-22 16:33S 39°06' E 145°52'1413.8
2014-Aug-22 15:33S 38°58' E 145°37'1413.7
2014-Aug-22 14:33S 38°51' E 145°22'1614.5
2014-Aug-22 13:28S 38°42' E 145°05'19 0.6
2014-Aug-21 04:06S 38°51' E 145°27'916.6
2014-Aug-21 03:34S 38°55' E 145°37'1716.8
2014-Aug-21 02:34S 39°03' E 145°56'1817.6
2014-Aug-21 01:34S 39°11' E 146°16'1817.9
2014-Aug-21 00:34S 39°06' E 146°39'1817.9
2014-Aug-20 23:33S 39°01' E 147°01'1918.1
2014-Aug-20 22:31S 38°55' E 147°24'12019.9
2014-Aug-20 16:30S 37°55' E 149°36'1919.3
2014-Aug-20 15:31S 37°42' E 149°53'2019.2
2014-Aug-20 14:28S 37°26' E 150°08'  
Track history (hours):
 
Tides and Currents Weather Stations Pressure Air Temp Water Temp Dewpoint Dewpoint Depression Visibility Wind Speed Wind Dir Waves Ship Positions

Gulf Bridge

Last reported at 2014-Aug-29 06:11 UTC. Time now 2014-Sep-02 02:11 UTC.
Position S 36°48' E 176°06'.

Length 213 m; beam 32.2 m; draft 11.5 m.

Type: Cargo ship. MMSI: 636091115.

Date/timePositionNaut miles runAvg speedWind from/ knotsBaromVisibWave heightAir tempDewpointWater temp
2014-Aug-29 06:11S 36°48' E 176°06'2012.0
2014-Aug-29 04:31S 36°31' E 175°53'2412.3
2014-Aug-29 02:33S 36°24' E 175°24'1010.4
2014-Aug-29 01:33S 36°28' E 175°12'1111.3
2014-Aug-29 00:32S 36°35' E 175°01'1111.2
2014-Aug-28 23:33S 36°43' E 174°52'8 8.1
2014-Aug-28 22:33S 36°50' E 174°47'0 0.3
2014-Aug-28 21:30S 36°51' E 174°47'0 0.0
2014-Aug-28 20:30S 36°51' E 174°47'0 0.0
2014-Aug-28 19:30S 36°51' E 174°47'0 0.0
2014-Aug-28 18:18S 36°51' E 174°47'0 0.0
2014-Aug-28 17:30S 36°51' E 174°47'0 0.0
2014-Aug-28 16:30S 36°51' E 174°47'0 0.0
2014-Aug-28 15:30S 36°51' E 174°47'0 0.0
2014-Aug-28 14:30S 36°51' E 174°47'0 0.0
2014-Aug-28 12:30S 36°51' E 174°47'0 0.0
2014-Aug-28 11:30S 36°51' E 174°47'0 0.0
2014-Aug-28 10:33S 36°51' E 174°47'6 6.3
2014-Aug-28 09:33S 36°45' E 174°50'10 9.9
2014-Aug-28 08:34S 36°37' E 174°57'1010.1
2014-Aug-28 07:34S 36°27' E 174°58'1111.1
2014-Aug-28 06:33S 36°16' E 174°58'  
2014-Aug-23 00:32S 39°21' E 148°09'1414.2
2014-Aug-22 23:34S 39°20' E 147°51'1413.6
2014-Aug-22 22:33S 39°20' E 147°33'1313.4
2014-Aug-22 21:33S 39°19' E 147°16'1313.3
2014-Aug-22 20:33S 39°18' E 146°58'1313.4
2014-Aug-22 19:33S 39°17' E 146°41'1413.7
2014-Aug-22 18:34S 39°17' E 146°24'1313.2
2014-Aug-22 17:33S 39°13' E 146°07'1414.1
2014-Aug-22 16:33S 39°06' E 145°52'1413.8
2014-Aug-22 15:33S 38°58' E 145°37'1413.7
2014-Aug-22 14:33S 38°51' E 145°22'1614.5
2014-Aug-22 13:28S 38°42' E 145°05'19 0.6
2014-Aug-21 04:06S 38°51' E 145°27'916.6
2014-Aug-21 03:34S 38°55' E 145°37'1716.8
2014-Aug-21 02:34S 39°03' E 145°56'1817.6
2014-Aug-21 01:34S 39°11' E 146°16'1817.9
2014-Aug-21 00:34S 39°06' E 146°39'1817.9
2014-Aug-20 23:33S 39°01' E 147°01'1918.1
2014-Aug-20 22:31S 38°55' E 147°24'12019.9
2014-Aug-20 16:30S 37°55' E 149°36'1919.3
2014-Aug-20 15:31S 37°42' E 149°53'2019.2
2014-Aug-20 14:28S 37°26' E 150°08'  

Dump ship's entire track history